sensor_id;sensor_type;location;lat;lon;timestamp;temperature;humidity
21353;DHT22;10834;52.268;6.770;2024-02-21T00:00:12;9.20;99.90
21353;DHT22;10834;52.268;6.770;2024-02-21T00:02:56;9.20;99.90
21353;DHT22;10834;52.268;6.770;2024-02-21T00:05:43;9.20;99.90
21353;DHT22;10834;52.268;6.770;2024-02-21T00:08:27;9.20;99.90
21353;DHT22;10834;52.268;6.770;2024-02-21T00:11:12;9.20;99.90
21353;DHT22;10834;52.268;6.770;2024-02-21T00:13:56;9.20;99.90
21353;DHT22;10834;52.268;6.770;2024-02-21T00:16:40;9.20;99.90
21353;DHT22;10834;52.268;6.770;2024-02-21T00:19:24;9.30;99.90
21353;DHT22;10834;52.268;6.770;2024-02-21T00:22:08;9.20;99.90
21353;DHT22;10834;52.268;6.770;2024-02-21T00:24:52;9.30;99.90
21353;DHT22;10834;52.268;6.770;2024-02-21T00:27:36;9.30;99.90
21353;DHT22;10834;52.268;6.770;2024-02-21T00:30:20;9.30;99.90
21353;DHT22;10834;52.268;6.770;2024-02-21T00:33:05;9.30;99.90
21353;DHT22;10834;52.268;6.770;2024-02-21T00:35:49;9.30;99.90
21353;DHT22;10834;52.268;6.770;2024-02-21T00:38:33;9.30;99.90
21353;DHT22;10834;52.268;6.770;2024-02-21T00:41:17;9.30;99.90
21353;DHT22;10834;52.268;6.770;2024-02-21T00:44:01;9.30;99.90
21353;DHT22;10834;52.268;6.770;2024-02-21T00:46:45;9.30;99.90
21353;DHT22;10834;52.268;6.770;2024-02-21T00:49:30;9.30;99.90
21353;DHT22;10834;52.268;6.770;2024-02-21T00:52:14;9.30;99.90
21353;DHT22;10834;52.268;6.770;2024-02-21T00:54:58;9.40;99.90
21353;DHT22;10834;52.268;6.770;2024-02-21T00:57:42;9.40;99.90
21353;DHT22;10834;52.268;6.770;2024-02-21T01:00:27;9.40;99.90
21353;DHT22;10834;52.268;6.770;2024-02-21T01:03:11;9.40;99.90
21353;DHT22;10834;52.268;6.770;2024-02-21T01:05:55;9.40;99.90
21353;DHT22;10834;52.268;6.770;2024-02-21T01:08:39;9.30;99.90
21353;DHT22;10834;52.268;6.770;2024-02-21T01:11:23;9.30;99.90
21353;DHT22;10834;52.268;6.770;2024-02-21T01:14:07;9.30;99.90
21353;DHT22;10834;52.268;6.770;2024-02-21T01:16:51;9.30;99.90
21353;DHT22;10834;52.268;6.770;2024-02-21T01:19:35;9.30;99.90
21353;DHT22;10834;52.268;6.770;2024-02-21T01:22:19;9.30;99.90
21353;DHT22;10834;52.268;6.770;2024-02-21T01:25:04;9.30;99.90
21353;DHT22;10834;52.268;6.770;2024-02-21T01:27:48;9.30;99.90
21353;DHT22;10834;52.268;6.770;2024-02-21T01:30:32;9.30;99.90
21353;DHT22;10834;52.268;6.770;2024-02-21T01:33:16;9.30;99.90
21353;DHT22;10834;52.268;6.770;2024-02-21T01:36:04;9.30;99.90
21353;DHT22;10834;52.268;6.770;2024-02-21T01:38:50;9.20;99.90
21353;DHT22;10834;52.268;6.770;2024-02-21T01:41:35;9.20;99.90
21353;DHT22;10834;52.268;6.770;2024-02-21T01:44:19;9.20;99.90
21353;DHT22;10834;52.268;6.770;2024-02-21T01:47:03;9.20;99.90
21353;DHT22;10834;52.268;6.770;2024-02-21T01:49:47;9.20;99.90
21353;DHT22;10834;52.268;6.770;2024-02-21T01:52:32;9.20;99.90
21353;DHT22;10834;52.268;6.770;2024-02-21T01:55:18;9.20;99.90
21353;DHT22;10834;52.268;6.770;2024-02-21T01:58:03;9.20;99.90
21353;DHT22;10834;52.268;6.770;2024-02-21T02:00:48;9.20;99.90
21353;DHT22;10834;52.268;6.770;2024-02-21T02:03:32;9.20;99.90
21353;DHT22;10834;52.268;6.770;2024-02-21T02:06:17;9.20;99.90
21353;DHT22;10834;52.268;6.770;2024-02-21T02:09:01;9.20;99.90
21353;DHT22;10834;52.268;6.770;2024-02-21T02:11:45;9.20;99.90
21353;DHT22;10834;52.268;6.770;2024-02-21T02:14:29;9.20;99.90
21353;DHT22;10834;52.268;6.770;2024-02-21T02:17:14;9.20;99.90
21353;DHT22;10834;52.268;6.770;2024-02-21T02:19:58;9.20;99.90
21353;DHT22;10834;52.268;6.770;2024-02-21T02:22:43;9.20;99.90
21353;DHT22;10834;52.268;6.770;2024-02-21T02:25:29;9.20;99.90
21353;DHT22;10834;52.268;6.770;2024-02-21T02:28:13;9.20;99.90
21353;DHT22;10834;52.268;6.770;2024-02-21T02:30:58;9.20;99.90
21353;DHT22;10834;52.268;6.770;2024-02-21T02:33:45;9.20;99.90
21353;DHT22;10834;52.268;6.770;2024-02-21T02:36:32;9.20;99.90
21353;DHT22;10834;52.268;6.770;2024-02-21T02:39:17;9.20;99.90
21353;DHT22;10834;52.268;6.770;2024-02-21T02:42:02;9.20;99.90
21353;DHT22;10834;52.268;6.770;2024-02-21T02:44:46;9.20;99.90
21353;DHT22;10834;52.268;6.770;2024-02-21T02:47:30;9.20;99.90
21353;DHT22;10834;52.268;6.770;2024-02-21T02:50:14;9.20;99.90
21353;DHT22;10834;52.268;6.770;2024-02-21T02:52:59;9.20;99.90
21353;DHT22;10834;52.268;6.770;2024-02-21T02:55:43;9.20;99.90
21353;DHT22;10834;52.268;6.770;2024-02-21T02:58:28;9.20;99.90
21353;DHT22;10834;52.268;6.770;2024-02-21T03:01:12;9.20;99.90
21353;DHT22;10834;52.268;6.770;2024-02-21T03:03:57;9.30;99.90
21353;DHT22;10834;52.268;6.770;2024-02-21T03:06:41;9.30;99.90
21353;DHT22;10834;52.268;6.770;2024-02-21T03:09:26;9.30;99.90
21353;DHT22;10834;52.268;6.770;2024-02-21T03:12:10;9.30;99.90
21353;DHT22;10834;52.268;6.770;2024-02-21T03:14:55;9.30;99.90
21353;DHT22;10834;52.268;6.770;2024-02-21T03:17:40;9.30;99.90
21353;DHT22;10834;52.268;6.770;2024-02-21T03:20:24;9.30;99.90
21353;DHT22;10834;52.268;6.770;2024-02-21T03:23:08;9.30;99.90
21353;DHT22;10834;52.268;6.770;2024-02-21T03:25:52;9.30;99.90
21353;DHT22;10834;52.268;6.770;2024-02-21T03:28:36;9.30;99.90
21353;DHT22;10834;52.268;6.770;2024-02-21T03:31:20;9.30;99.90
21353;DHT22;10834;52.268;6.770;2024-02-21T03:34:04;9.30;99.90
21353;DHT22;10834;52.268;6.770;2024-02-21T03:36:48;9.30;99.90
21353;DHT22;10834;52.268;6.770;2024-02-21T03:39:33;9.30;99.90
21353;DHT22;10834;52.268;6.770;2024-02-21T03:42:17;9.30;99.90
21353;DHT22;10834;52.268;6.770;2024-02-21T03:45:01;9.30;99.90
21353;DHT22;10834;52.268;6.770;2024-02-21T03:47:45;9.20;99.90
21353;DHT22;10834;52.268;6.770;2024-02-21T03:50:29;9.30;99.90
21353;DHT22;10834;52.268;6.770;2024-02-21T03:53:13;9.20;99.90
21353;DHT22;10834;52.268;6.770;2024-02-21T03:56:00;9.20;99.90
21353;DHT22;10834;52.268;6.770;2024-02-21T03:58:46;9.20;99.90
21353;DHT22;10834;52.268;6.770;2024-02-21T04:01:31;9.20;99.90
21353;DHT22;10834;52.268;6.770;2024-02-21T04:04:15;9.20;99.90
21353;DHT22;10834;52.268;6.770;2024-02-21T04:06:59;9.20;99.90
21353;DHT22;10834;52.268;6.770;2024-02-21T04:09:44;9.20;99.90
21353;DHT22;10834;52.268;6.770;2024-02-21T04:12:28;9.20;99.90
21353;DHT22;10834;52.268;6.770;2024-02-21T04:15:12;9.20;99.90
21353;DHT22;10834;52.268;6.770;2024-02-21T04:17:57;9.20;99.90
21353;DHT22;10834;52.268;6.770;2024-02-21T04:20:41;9.20;99.90
21353;DHT22;10834;52.268;6.770;2024-02-21T04:23:25;9.20;99.90
21353;DHT22;10834;52.268;6.770;2024-02-21T04:26:09;9.10;99.90
21353;DHT22;10834;52.268;6.770;2024-02-21T04:28:53;9.10;99.90
21353;DHT22;10834;52.268;6.770;2024-02-21T04:31:37;9.10;99.90
21353;DHT22;10834;52.268;6.770;2024-02-21T04:34:21;9.10;99.90
21353;DHT22;10834;52.268;6.770;2024-02-21T04:37:05;9.10;99.90
21353;DHT22;10834;52.268;6.770;2024-02-21T04:39:50;9.10;99.90
21353;DHT22;10834;52.268;6.770;2024-02-21T04:42:35;9.10;99.90
21353;DHT22;10834;52.268;6.770;2024-02-21T04:45:19;9.10;99.90
21353;DHT22;10834;52.268;6.770;2024-02-21T04:48:03;9.10;99.90
21353;DHT22;10834;52.268;6.770;2024-02-21T04:50:47;9.10;99.90
21353;DHT22;10834;52.268;6.770;2024-02-21T04:53:32;9.10;99.90
21353;DHT22;10834;52.268;6.770;2024-02-21T04:56:16;9.10;99.90
21353;DHT22;10834;52.268;6.770;2024-02-21T04:59:00;9.10;99.90
21353;DHT22;10834;52.268;6.770;2024-02-21T05:01:44;9.10;99.90
21353;DHT22;10834;52.268;6.770;2024-02-21T05:04:28;9.10;99.90
21353;DHT22;10834;52.268;6.770;2024-02-21T05:07:12;9.10;99.90
21353;DHT22;10834;52.268;6.770;2024-02-21T05:09:56;9.10;99.90
21353;DHT22;10834;52.268;6.770;2024-02-21T05:12:40;9.10;99.90
21353;DHT22;10834;52.268;6.770;2024-02-21T05:15:25;9.10;99.90
21353;DHT22;10834;52.268;6.770;2024-02-21T05:18:09;9.10;99.90
21353;DHT22;10834;52.268;6.770;2024-02-21T05:20:53;9.10;99.90
21353;DHT22;10834;52.268;6.770;2024-02-21T05:23:38;9.10;99.90
21353;DHT22;10834;52.268;6.770;2024-02-21T05:26:27;9.10;99.90
21353;DHT22;10834;52.268;6.770;2024-02-21T05:29:11;9.10;99.90
21353;DHT22;10834;52.268;6.770;2024-02-21T05:31:56;9.10;99.90
21353;DHT22;10834;52.268;6.770;2024-02-21T05:34:41;9.10;99.90
21353;DHT22;10834;52.268;6.770;2024-02-21T05:37:25;9.10;99.90
21353;DHT22;10834;52.268;6.770;2024-02-21T05:40:10;9.10;99.90
21353;DHT22;10834;52.268;6.770;2024-02-21T05:42:57;9.10;99.90
21353;DHT22;10834;52.268;6.770;2024-02-21T05:45:41;9.10;99.90
21353;DHT22;10834;52.268;6.770;2024-02-21T05:48:25;9.10;99.90
21353;DHT22;10834;52.268;6.770;2024-02-21T05:51:09;9.00;99.90
21353;DHT22;10834;52.268;6.770;2024-02-21T05:53:53;9.10;99.90
21353;DHT22;10834;52.268;6.770;2024-02-21T05:56:37;9.10;99.90
21353;DHT22;10834;52.268;6.770;2024-02-21T05:59:21;9.10;99.90
21353;DHT22;10834;52.268;6.770;2024-02-21T06:02:05;9.00;99.90
21353;DHT22;10834;52.268;6.770;2024-02-21T06:04:50;9.00;99.90
21353;DHT22;10834;52.268;6.770;2024-02-21T06:07:34;9.00;99.90
21353;DHT22;10834;52.268;6.770;2024-02-21T06:10:19;9.00;99.90
21353;DHT22;10834;52.268;6.770;2024-02-21T06:13:03;9.00;99.90
21353;DHT22;10834;52.268;6.770;2024-02-21T06:15:47;9.00;99.90
21353;DHT22;10834;52.268;6.770;2024-02-21T06:18:32;9.00;99.90
21353;DHT22;10834;52.268;6.770;2024-02-21T06:21:16;8.90;99.90
21353;DHT22;10834;52.268;6.770;2024-02-21T06:24:01;9.00;99.90
21353;DHT22;10834;52.268;6.770;2024-02-21T06:26:45;8.90;99.90
21353;DHT22;10834;52.268;6.770;2024-02-21T06:29:29;8.90;99.90
21353;DHT22;10834;52.268;6.770;2024-02-21T06:32:13;8.90;99.90
21353;DHT22;10834;52.268;6.770;2024-02-21T06:34:57;8.90;99.90
21353;DHT22;10834;52.268;6.770;2024-02-21T06:37:41;8.90;99.90
21353;DHT22;10834;52.268;6.770;2024-02-21T06:40:25;8.90;99.90
21353;DHT22;10834;52.268;6.770;2024-02-21T06:43:09;8.90;99.90
21353;DHT22;10834;52.268;6.770;2024-02-21T06:45:53;8.90;99.90
21353;DHT22;10834;52.268;6.770;2024-02-21T06:48:38;8.90;99.90
21353;DHT22;10834;52.268;6.770;2024-02-21T06:51:23;8.90;99.90
21353;DHT22;10834;52.268;6.770;2024-02-21T06:54:07;8.90;99.90
21353;DHT22;10834;52.268;6.770;2024-02-21T06:56:51;8.90;99.90
21353;DHT22;10834;52.268;6.770;2024-02-21T06:59:35;8.90;99.90
21353;DHT22;10834;52.268;6.770;2024-02-21T07:02:19;8.90;99.90
21353;DHT22;10834;52.268;6.770;2024-02-21T07:05:03;8.90;99.90
21353;DHT22;10834;52.268;6.770;2024-02-21T07:07:48;8.90;99.90
21353;DHT22;10834;52.268;6.770;2024-02-21T07:10:31;8.90;99.90
21353;DHT22;10834;52.268;6.770;2024-02-21T07:13:15;8.90;99.90
21353;DHT22;10834;52.268;6.770;2024-02-21T07:16:01;8.90;99.90
21353;DHT22;10834;52.268;6.770;2024-02-21T07:18:45;8.90;99.90
21353;DHT22;10834;52.268;6.770;2024-02-21T07:21:29;8.90;99.90
21353;DHT22;10834;52.268;6.770;2024-02-21T07:24:13;8.90;99.90
21353;DHT22;10834;52.268;6.770;2024-02-21T07:26:57;8.90;99.90
21353;DHT22;10834;52.268;6.770;2024-02-21T07:29:42;9.00;99.90
21353;DHT22;10834;52.268;6.770;2024-02-21T07:32:26;8.90;99.90
21353;DHT22;10834;52.268;6.770;2024-02-21T07:35:10;9.00;99.90
21353;DHT22;10834;52.268;6.770;2024-02-21T07:37:55;9.00;99.90
21353;DHT22;10834;52.268;6.770;2024-02-21T07:40:39;9.10;99.90
21353;DHT22;10834;52.268;6.770;2024-02-21T07:43:23;9.10;99.90
21353;DHT22;10834;52.268;6.770;2024-02-21T07:46:10;9.20;99.90
21353;DHT22;10834;52.268;6.770;2024-02-21T07:48:54;9.20;99.90
21353;DHT22;10834;52.268;6.770;2024-02-21T07:51:38;9.30;99.90
21353;DHT22;10834;52.268;6.770;2024-02-21T07:54:23;9.30;99.90
21353;DHT22;10834;52.268;6.770;2024-02-21T07:57:07;9.30;99.90
21353;DHT22;10834;52.268;6.770;2024-02-21T07:59:51;9.30;99.90
21353;DHT22;10834;52.268;6.770;2024-02-21T08:02:36;9.30;99.90
21353;DHT22;10834;52.268;6.770;2024-02-21T08:05:22;9.40;99.90
21353;DHT22;10834;52.268;6.770;2024-02-21T08:08:06;9.40;99.90
21353;DHT22;10834;52.268;6.770;2024-02-21T08:10:52;9.40;99.90
21353;DHT22;10834;52.268;6.770;2024-02-21T08:13:36;9.40;99.90
21353;DHT22;10834;52.268;6.770;2024-02-21T08:16:21;9.40;99.90
21353;DHT22;10834;52.268;6.770;2024-02-21T08:19:05;9.40;99.90
21353;DHT22;10834;52.268;6.770;2024-02-21T08:21:48;9.50;99.90
21353;DHT22;10834;52.268;6.770;2024-02-21T08:24:33;9.50;99.90
21353;DHT22;10834;52.268;6.770;2024-02-21T08:27:17;9.50;99.90
21353;DHT22;10834;52.268;6.770;2024-02-21T08:30:01;9.50;99.90
21353;DHT22;10834;52.268;6.770;2024-02-21T08:32:46;9.50;99.90
21353;DHT22;10834;52.268;6.770;2024-02-21T08:35:30;9.60;99.90
21353;DHT22;10834;52.268;6.770;2024-02-21T08:38:14;9.60;99.90
21353;DHT22;10834;52.268;6.770;2024-02-21T08:40:58;9.60;99.90
21353;DHT22;10834;52.268;6.770;2024-02-21T08:43:42;9.70;99.90
21353;DHT22;10834;52.268;6.770;2024-02-21T08:46:27;9.80;99.90
21353;DHT22;10834;52.268;6.770;2024-02-21T08:49:11;9.90;99.90
21353;DHT22;10834;52.268;6.770;2024-02-21T08:51:55;9.90;99.90
21353;DHT22;10834;52.268;6.770;2024-02-21T08:54:39;10.00;99.90
21353;DHT22;10834;52.268;6.770;2024-02-21T08:57:24;10.00;99.90
21353;DHT22;10834;52.268;6.770;2024-02-21T09:00:08;10.00;99.90
21353;DHT22;10834;52.268;6.770;2024-02-21T09:02:57;10.00;99.90
21353;DHT22;10834;52.268;6.770;2024-02-21T09:05:41;10.10;99.90
21353;DHT22;10834;52.268;6.770;2024-02-21T09:08:25;10.30;99.90
21353;DHT22;10834;52.268;6.770;2024-02-21T09:11:09;10.40;99.90
21353;DHT22;10834;52.268;6.770;2024-02-21T09:13:54;10.40;99.90
21353;DHT22;10834;52.268;6.770;2024-02-21T09:16:38;10.40;99.90
21353;DHT22;10834;52.268;6.770;2024-02-21T09:19:22;10.40;99.90
21353;DHT22;10834;52.268;6.770;2024-02-21T09:22:06;10.40;99.90
21353;DHT22;10834;52.268;6.770;2024-02-21T09:24:50;10.40;99.90
21353;DHT22;10834;52.268;6.770;2024-02-21T09:27:34;10.40;99.90
21353;DHT22;10834;52.268;6.770;2024-02-21T09:30:18;10.40;99.90
21353;DHT22;10834;52.268;6.770;2024-02-21T09:33:03;10.40;99.90
21353;DHT22;10834;52.268;6.770;2024-02-21T09:35:49;10.40;99.90
21353;DHT22;10834;52.268;6.770;2024-02-21T09:38:33;10.40;99.90
21353;DHT22;10834;52.268;6.770;2024-02-21T09:41:27;10.40;99.90
21353;DHT22;10834;52.268;6.770;2024-02-21T09:44:14;10.30;99.90
21353;DHT22;10834;52.268;6.770;2024-02-21T09:47:03;10.30;99.90
21353;DHT22;10834;52.268;6.770;2024-02-21T09:49:51;10.40;99.90
21353;DHT22;10834;52.268;6.770;2024-02-21T09:52:36;10.40;99.90
21353;DHT22;10834;52.268;6.770;2024-02-21T09:55:21;10.40;99.90
21353;DHT22;10834;52.268;6.770;2024-02-21T09:58:07;10.40;99.90
21353;DHT22;10834;52.268;6.770;2024-02-21T10:00:53;10.40;99.90
21353;DHT22;10834;52.268;6.770;2024-02-21T10:03:37;10.30;99.90
21353;DHT22;10834;52.268;6.770;2024-02-21T10:06:22;10.30;99.90
21353;DHT22;10834;52.268;6.770;2024-02-21T10:09:07;10.30;99.90
21353;DHT22;10834;52.268;6.770;2024-02-21T10:11:51;10.40;99.90
21353;DHT22;10834;52.268;6.770;2024-02-21T10:14:35;10.40;99.90
21353;DHT22;10834;52.268;6.770;2024-02-21T10:17:20;10.40;99.90
21353;DHT22;10834;52.268;6.770;2024-02-21T10:20:11;10.50;99.90
21353;DHT22;10834;52.268;6.770;2024-02-21T10:23:05;10.50;99.90
21353;DHT22;10834;52.268;6.770;2024-02-21T10:25:53;10.60;99.90
21353;DHT22;10834;52.268;6.770;2024-02-21T10:28:38;10.80;99.90
21353;DHT22;10834;52.268;6.770;2024-02-21T10:31:32;10.90;99.90
21353;DHT22;10834;52.268;6.770;2024-02-21T10:34:17;11.10;99.90
21353;DHT22;10834;52.268;6.770;2024-02-21T10:37:06;11.10;99.90
21353;DHT22;10834;52.268;6.770;2024-02-21T10:39:50;11.10;99.90
21353;DHT22;10834;52.268;6.770;2024-02-21T10:42:36;11.10;99.90
21353;DHT22;10834;52.268;6.770;2024-02-21T10:45:22;11.10;99.90
21353;DHT22;10834;52.268;6.770;2024-02-21T10:48:12;11.10;99.90
21353;DHT22;10834;52.268;6.770;2024-02-21T10:51:02;11.10;99.90
21353;DHT22;10834;52.268;6.770;2024-02-21T10:56:57;11.20;99.90
21353;DHT22;10834;52.268;6.770;2024-02-21T10:59:44;11.40;99.90
21353;DHT22;10834;52.268;6.770;2024-02-21T11:02:28;11.40;99.90
21353;DHT22;10834;52.268;6.770;2024-02-21T11:05:16;11.50;99.90
21353;DHT22;10834;52.268;6.770;2024-02-21T11:08:02;11.40;99.90
21353;DHT22;10834;52.268;6.770;2024-02-21T11:10:47;11.40;99.90
21353;DHT22;10834;52.268;6.770;2024-02-21T11:13:32;11.50;99.90
21353;DHT22;10834;52.268;6.770;2024-02-21T11:16:23;11.40;99.90
21353;DHT22;10834;52.268;6.770;2024-02-21T11:19:08;11.40;99.90
21353;DHT22;10834;52.268;6.770;2024-02-21T11:21:55;11.30;99.90
21353;DHT22;10834;52.268;6.770;2024-02-21T11:24:39;11.20;99.90
21353;DHT22;10834;52.268;6.770;2024-02-21T11:27:23;11.10;99.90
21353;DHT22;10834;52.268;6.770;2024-02-21T11:30:12;11.10;99.90
21353;DHT22;10834;52.268;6.770;2024-02-21T11:33:03;11.10;99.90
21353;DHT22;10834;52.268;6.770;2024-02-21T11:35:48;10.90;99.90
21353;DHT22;10834;52.268;6.770;2024-02-21T11:38:32;10.80;99.90
21353;DHT22;10834;52.268;6.770;2024-02-21T11:41:16;10.70;99.90
21353;DHT22;10834;52.268;6.770;2024-02-21T11:44:00;10.70;99.90
21353;DHT22;10834;52.268;6.770;2024-02-21T11:46:44;10.60;99.90
21353;DHT22;10834;52.268;6.770;2024-02-21T11:49:30;10.60;99.90
21353;DHT22;10834;52.268;6.770;2024-02-21T11:52:15;10.50;99.90
21353;DHT22;10834;52.268;6.770;2024-02-21T11:55:00;10.50;99.90
21353;DHT22;10834;52.268;6.770;2024-02-21T11:57:49;10.40;99.90
21353;DHT22;10834;52.268;6.770;2024-02-21T12:00:33;10.40;99.90
21353;DHT22;10834;52.268;6.770;2024-02-21T12:03:17;10.40;99.90
21353;DHT22;10834;52.268;6.770;2024-02-21T12:06:02;10.40;99.90
21353;DHT22;10834;52.268;6.770;2024-02-21T12:08:47;10.40;99.90
21353;DHT22;10834;52.268;6.770;2024-02-21T12:11:31;10.40;99.90
21353;DHT22;10834;52.268;6.770;2024-02-21T12:14:16;10.40;99.90
21353;DHT22;10834;52.268;6.770;2024-02-21T12:17:02;10.40;99.90
21353;DHT22;10834;52.268;6.770;2024-02-21T12:19:48;10.50;99.90
21353;DHT22;10834;52.268;6.770;2024-02-21T12:22:33;10.50;99.90
21353;DHT22;10834;52.268;6.770;2024-02-21T12:25:18;10.50;99.90
21353;DHT22;10834;52.268;6.770;2024-02-21T12:28:03;10.50;99.90
21353;DHT22;10834;52.268;6.770;2024-02-21T12:30:47;10.60;99.90
21353;DHT22;10834;52.268;6.770;2024-02-21T12:33:32;10.60;99.90
21353;DHT22;10834;52.268;6.770;2024-02-21T12:36:17;10.60;99.90
21353;DHT22;10834;52.268;6.770;2024-02-21T12:39:01;10.50;99.90
21353;DHT22;10834;52.268;6.770;2024-02-21T12:41:47;10.40;99.90
21353;DHT22;10834;52.268;6.770;2024-02-21T12:44:31;10.40;99.90
21353;DHT22;10834;52.268;6.770;2024-02-21T12:47:15;10.40;99.90
21353;DHT22;10834;52.268;6.770;2024-02-21T12:50:00;10.30;99.90
21353;DHT22;10834;52.268;6.770;2024-02-21T12:52:47;10.30;99.90
21353;DHT22;10834;52.268;6.770;2024-02-21T12:55:31;10.30;99.90
21353;DHT22;10834;52.268;6.770;2024-02-21T12:58:15;10.30;99.90
21353;DHT22;10834;52.268;6.770;2024-02-21T13:00:59;10.30;99.90
21353;DHT22;10834;52.268;6.770;2024-02-21T13:03:43;10.30;99.90
21353;DHT22;10834;52.268;6.770;2024-02-21T13:06:27;10.40;99.90
21353;DHT22;10834;52.268;6.770;2024-02-21T13:09:12;10.30;99.90
21353;DHT22;10834;52.268;6.770;2024-02-21T13:11:57;10.30;99.90
21353;DHT22;10834;52.268;6.770;2024-02-21T13:14:41;10.40;99.90
21353;DHT22;10834;52.268;6.770;2024-02-21T13:17:27;10.50;99.90
21353;DHT22;10834;52.268;6.770;2024-02-21T13:20:14;10.50;99.90
21353;DHT22;10834;52.268;6.770;2024-02-21T13:22:58;10.70;99.90
21353;DHT22;10834;52.268;6.770;2024-02-21T13:25:42;10.80;99.90
21353;DHT22;10834;52.268;6.770;2024-02-21T13:28:28;10.80;99.90
21353;DHT22;10834;52.268;6.770;2024-02-21T13:31:12;10.90;99.90
21353;DHT22;10834;52.268;6.770;2024-02-21T13:33:56;11.00;99.90
21353;DHT22;10834;52.268;6.770;2024-02-21T13:36:40;11.10;99.90
21353;DHT22;10834;52.268;6.770;2024-02-21T13:39:24;11.10;99.90
21353;DHT22;10834;52.268;6.770;2024-02-21T13:42:08;11.20;99.90
21353;DHT22;10834;52.268;6.770;2024-02-21T13:44:52;11.20;99.90
21353;DHT22;10834;52.268;6.770;2024-02-21T13:47:36;11.10;99.90
21353;DHT22;10834;52.268;6.770;2024-02-21T13:50:27;11.10;99.90
21353;DHT22;10834;52.268;6.770;2024-02-21T13:53:13;11.10;99.90
21353;DHT22;10834;52.268;6.770;2024-02-21T13:55:57;11.20;99.90
21353;DHT22;10834;52.268;6.770;2024-02-21T13:58:42;11.20;99.90
21353;DHT22;10834;52.268;6.770;2024-02-21T14:01:26;11.20;99.90
21353;DHT22;10834;52.268;6.770;2024-02-21T14:04:12;11.20;99.90
21353;DHT22;10834;52.268;6.770;2024-02-21T14:06:56;11.20;99.90
21353;DHT22;10834;52.268;6.770;2024-02-21T14:09:40;11.20;99.90
21353;DHT22;10834;52.268;6.770;2024-02-21T14:12:24;11.30;99.90
21353;DHT22;10834;52.268;6.770;2024-02-21T14:15:08;11.20;99.90
21353;DHT22;10834;52.268;6.770;2024-02-21T14:17:53;11.20;99.90
21353;DHT22;10834;52.268;6.770;2024-02-21T14:20:37;11.20;99.90
21353;DHT22;10834;52.268;6.770;2024-02-21T14:23:21;11.20;99.90
21353;DHT22;10834;52.268;6.770;2024-02-21T14:26:05;11.20;99.90
21353;DHT22;10834;52.268;6.770;2024-02-21T14:28:50;11.30;99.90
21353;DHT22;10834;52.268;6.770;2024-02-21T14:31:34;11.30;99.90
21353;DHT22;10834;52.268;6.770;2024-02-21T14:34:18;11.30;99.90
21353;DHT22;10834;52.268;6.770;2024-02-21T14:37:02;11.30;99.90
21353;DHT22;10834;52.268;6.770;2024-02-21T14:39:48;11.20;99.90
21353;DHT22;10834;52.268;6.770;2024-02-21T14:42:32;11.20;99.90
21353;DHT22;10834;52.268;6.770;2024-02-21T14:45:16;11.20;99.90
21353;DHT22;10834;52.268;6.770;2024-02-21T14:48:00;11.20;99.90
21353;DHT22;10834;52.268;6.770;2024-02-21T14:50:45;11.10;99.90
21353;DHT22;10834;52.268;6.770;2024-02-21T14:53:30;11.10;99.90
21353;DHT22;10834;52.268;6.770;2024-02-21T14:56:15;11.10;99.90
21353;DHT22;10834;52.268;6.770;2024-02-21T14:59:00;11.10;99.90
21353;DHT22;10834;52.268;6.770;2024-02-21T15:01:44;11.00;99.90
21353;DHT22;10834;52.268;6.770;2024-02-21T15:04:28;11.00;99.90
21353;DHT22;10834;52.268;6.770;2024-02-21T15:07:12;11.00;99.90
21353;DHT22;10834;52.268;6.770;2024-02-21T15:09:57;10.90;99.90
21353;DHT22;10834;52.268;6.770;2024-02-21T15:12:41;10.90;99.90
21353;DHT22;10834;52.268;6.770;2024-02-21T15:15:26;10.90;99.90
21353;DHT22;10834;52.268;6.770;2024-02-21T15:18:10;10.80;99.90
21353;DHT22;10834;52.268;6.770;2024-02-21T15:20:54;10.80;99.90
21353;DHT22;10834;52.268;6.770;2024-02-21T15:23:39;10.80;99.90
21353;DHT22;10834;52.268;6.770;2024-02-21T15:26:23;10.70;99.90
21353;DHT22;10834;52.268;6.770;2024-02-21T15:29:08;10.70;99.90
21353;DHT22;10834;52.268;6.770;2024-02-21T15:31:53;10.70;99.90
21353;DHT22;10834;52.268;6.770;2024-02-21T15:34:37;10.70;99.90
21353;DHT22;10834;52.268;6.770;2024-02-21T15:37:22;10.70;99.90
21353;DHT22;10834;52.268;6.770;2024-02-21T15:40:06;10.70;99.90
21353;DHT22;10834;52.268;6.770;2024-02-21T15:42:52;10.70;99.90
21353;DHT22;10834;52.268;6.770;2024-02-21T15:45:37;10.70;99.90
21353;DHT22;10834;52.268;6.770;2024-02-21T15:48:26;10.70;99.90
21353;DHT22;10834;52.268;6.770;2024-02-21T15:51:10;10.70;99.90
21353;DHT22;10834;52.268;6.770;2024-02-21T15:53:54;10.70;99.90
21353;DHT22;10834;52.268;6.770;2024-02-21T15:56:38;10.70;99.90
21353;DHT22;10834;52.268;6.770;2024-02-21T15:59:22;10.70;99.90
21353;DHT22;10834;52.268;6.770;2024-02-21T16:02:06;10.70;99.90
21353;DHT22;10834;52.268;6.770;2024-02-21T16:04:50;10.70;99.90
21353;DHT22;10834;52.268;6.770;2024-02-21T16:07:35;10.70;99.90
21353;DHT22;10834;52.268;6.770;2024-02-21T16:10:19;10.70;99.90
21353;DHT22;10834;52.268;6.770;2024-02-21T16:13:04;10.60;99.90
21353;DHT22;10834;52.268;6.770;2024-02-21T16:15:48;10.60;99.90
21353;DHT22;10834;52.268;6.770;2024-02-21T16:18:32;10.50;99.90
21353;DHT22;10834;52.268;6.770;2024-02-21T16:21:16;10.50;99.90
21353;DHT22;10834;52.268;6.770;2024-02-21T16:24:01;10.40;99.90
21353;DHT22;10834;52.268;6.770;2024-02-21T16:26:45;10.40;99.90
21353;DHT22;10834;52.268;6.770;2024-02-21T16:29:30;10.40;99.90
21353;DHT22;10834;52.268;6.770;2024-02-21T16:32:14;10.40;99.90
21353;DHT22;10834;52.268;6.770;2024-02-21T16:34:58;10.30;99.90
21353;DHT22;10834;52.268;6.770;2024-02-21T16:37:44;10.20;99.90
21353;DHT22;10834;52.268;6.770;2024-02-21T16:40:29;10.20;99.90
21353;DHT22;10834;52.268;6.770;2024-02-21T16:43:14;10.10;99.90
21353;DHT22;10834;52.268;6.770;2024-02-21T16:45:58;10.10;99.90
21353;DHT22;10834;52.268;6.770;2024-02-21T16:48:42;10.00;99.90
21353;DHT22;10834;52.268;6.770;2024-02-21T16:51:26;9.90;99.90
21353;DHT22;10834;52.268;6.770;2024-02-21T16:54:10;9.90;99.90
21353;DHT22;10834;52.268;6.770;2024-02-21T16:56:54;9.80;99.90
21353;DHT22;10834;52.268;6.770;2024-02-21T16:59:38;9.80;99.90
21353;DHT22;10834;52.268;6.770;2024-02-21T17:02:22;9.70;99.90
21353;DHT22;10834;52.268;6.770;2024-02-21T17:05:09;9.70;99.90
21353;DHT22;10834;52.268;6.770;2024-02-21T17:07:53;9.60;99.90
21353;DHT22;10834;52.268;6.770;2024-02-21T17:10:37;9.60;99.90
21353;DHT22;10834;52.268;6.770;2024-02-21T17:13:23;9.50;99.90
21353;DHT22;10834;52.268;6.770;2024-02-21T17:16:08;9.50;99.90
21353;DHT22;10834;52.268;6.770;2024-02-21T17:18:54;9.50;99.90
21353;DHT22;10834;52.268;6.770;2024-02-21T17:21:38;9.40;99.90
21353;DHT22;10834;52.268;6.770;2024-02-21T17:24:22;9.40;99.90
21353;DHT22;10834;52.268;6.770;2024-02-21T17:27:07;9.40;99.90
21353;DHT22;10834;52.268;6.770;2024-02-21T17:29:52;9.40;99.90
21353;DHT22;10834;52.268;6.770;2024-02-21T17:32:36;9.30;99.90